createdAt,value
2018-07-31T00:01:37.585Z,3.53
2018-07-31T00:04:06.547Z,3.70
2018-07-31T00:06:35.098Z,3.73
2018-07-31T00:09:07.505Z,3.67
2018-07-31T00:11:36.595Z,3.77
2018-07-31T00:14:06.148Z,3.53
2018-07-31T00:16:34.651Z,3.80
2018-07-31T00:19:05.764Z,3.80
2018-07-31T00:21:34.283Z,4.07
2018-07-31T00:24:03.360Z,3.53
2018-07-31T00:26:33.059Z,3.93
2018-07-31T00:29:01.525Z,3.70
2018-07-31T00:31:30.008Z,3.73
2018-07-31T00:33:58.595Z,4.23
2018-07-31T00:36:27.133Z,4.00
2018-07-31T00:38:55.673Z,4.17
2018-07-31T00:41:24.543Z,4.17
2018-07-31T00:43:55.386Z,3.90
2018-07-31T00:46:23.926Z,4.00
2018-07-31T00:48:53.015Z,3.90
2018-07-31T00:51:21.650Z,4.03
2018-07-31T00:53:50.771Z,4.27
2018-07-31T00:56:19.649Z,3.70
2018-07-31T00:58:49.426Z,3.93
2018-07-31T01:01:17.911Z,3.93
2018-07-31T01:03:46.560Z,3.43
2018-07-31T01:06:15.687Z,3.60
2018-07-31T01:08:44.895Z,3.70
2018-07-31T01:11:13.588Z,3.93
2018-07-31T01:13:42.103Z,3.90
2018-07-31T01:16:10.582Z,4.17
2018-07-31T01:18:39.439Z,4.10
2018-07-31T01:21:07.995Z,4.47
2018-07-31T01:23:36.477Z,4.27
2018-07-31T01:26:05.057Z,4.27
2018-07-31T01:28:33.985Z,4.53
2018-07-31T01:31:03.998Z,4.40
2018-07-31T01:33:32.470Z,4.50
2018-07-31T01:36:01.146Z,4.33
2018-07-31T01:38:30.631Z,4.53
2018-07-31T01:40:58.819Z,4.47
2018-07-31T01:43:28.091Z,4.50
2018-07-31T01:45:58.353Z,5.53
2018-07-31T01:48:26.993Z,5.00
2018-07-31T01:50:55.490Z,5.33
2018-07-31T01:53:24.018Z,6.73
2018-07-31T01:55:52.739Z,6.43
2018-07-31T01:58:22.577Z,6.53
2018-07-31T02:00:51.113Z,6.97
2018-07-31T02:03:19.579Z,6.20
2018-07-31T02:05:48.109Z,7.13
2018-07-31T02:08:16.568Z,7.80
2018-07-31T02:10:48.278Z,8.37
2018-07-31T02:13:16.942Z,7.93
2018-07-31T02:15:45.865Z,8.83
2018-07-31T02:18:15.978Z,9.17
2018-07-31T02:20:44.512Z,9.90
2018-07-31T02:23:14.051Z,10.10
2018-07-31T02:25:42.266Z,10.53
2018-07-31T02:28:10.807Z,11.03
2018-07-31T02:30:40.363Z,10.40
2018-07-31T02:33:08.858Z,12.17
2018-07-31T02:35:38.236Z,12.20
2018-07-31T02:38:07.149Z,11.77
2018-07-31T02:40:36.900Z,13.33
2018-07-31T02:43:06.014Z,13.20
2018-07-31T02:45:34.503Z,14.33
2018-07-31T02:48:03.047Z,12.70
2018-07-31T02:50:32.383Z,13.50
2018-07-31T02:53:02.078Z,14.80
2018-07-31T02:55:30.581Z,15.10
2018-07-31T02:57:59.998Z,15.00
2018-07-31T03:00:28.500Z,15.60
2018-07-31T03:02:57.762Z,15.63
2018-07-31T03:05:26.299Z,14.70
2018-07-31T03:07:54.854Z,16.00
2018-07-31T03:10:54.413Z,15.87
2018-07-31T03:13:23.529Z,17.30
2018-07-31T03:15:52.122Z,16.63
2018-07-31T03:18:20.666Z,16.03
2018-07-31T03:20:49.668Z,18.03
2018-07-31T03:23:18.841Z,18.37
2018-07-31T03:25:47.499Z,18.77
2018-07-31T03:28:16.091Z,20.10
2018-07-31T03:30:45.387Z,19.63
2018-07-31T03:33:13.878Z,19.27
2018-07-31T03:35:43.518Z,18.73
2018-07-31T03:38:12.027Z,19.07
2018-07-31T03:40:42.150Z,20.77
2018-07-31T03:43:10.719Z,19.10
2018-07-31T03:45:39.779Z,19.97
2018-07-31T03:48:08.304Z,18.70
2018-07-31T03:50:36.856Z,19.50
2018-07-31T03:53:05.585Z,21.10
2018-07-31T03:55:34.108Z,20.60
2018-07-31T03:58:02.780Z,19.70
2018-07-31T04:00:31.296Z,20.00
2018-07-31T04:02:59.796Z,20.80
2018-07-31T04:05:28.338Z,21.93
2018-07-31T04:07:57.892Z,21.17
2018-07-31T04:10:27.248Z,20.23
2018-07-31T04:12:55.972Z,20.53
2018-07-31T04:15:24.880Z,18.73
2018-07-31T04:17:57.019Z,21.83
2018-07-31T04:20:27.122Z,19.90
2018-07-31T04:22:55.664Z,20.47
2018-07-31T04:25:25.032Z,20.67
2018-07-31T04:27:53.747Z,19.87
2018-07-31T04:30:22.279Z,18.27
2018-07-31T04:32:50.827Z,19.03
2018-07-31T04:35:19.475Z,19.27
2018-07-31T04:37:48.893Z,18.63
2018-07-31T04:40:17.409Z,20.23
2018-07-31T04:42:45.891Z,20.57
2018-07-31T04:45:14.423Z,20.20
2018-07-31T04:47:42.895Z,19.07
2018-07-31T04:50:11.841Z,19.23
2018-07-31T04:52:41.960Z,18.77
2018-07-31T04:55:10.446Z,19.30
2018-07-31T04:57:39.281Z,19.20
2018-07-31T05:00:09.427Z,19.40
2018-07-31T05:02:39.221Z,19.17
2018-07-31T05:05:07.766Z,17.97
2018-07-31T05:07:39.364Z,18.43
2018-07-31T05:10:11.156Z,18.37
2018-07-31T05:12:41.159Z,17.47
2018-07-31T05:15:10.039Z,17.20
2018-07-31T05:17:39.226Z,16.73
2018-07-31T05:20:09.731Z,16.47
2018-07-31T05:22:38.747Z,17.00
2018-07-31T05:25:07.393Z,16.53
2018-07-31T05:27:36.399Z,16.23
2018-07-31T05:30:08.010Z,16.07
2018-07-31T05:32:37.850Z,15.63
2018-07-31T05:35:07.576Z,14.50
2018-07-31T05:37:36.807Z,15.87
2018-07-31T05:40:08.095Z,14.73
2018-07-31T05:42:38.498Z,14.57
2018-07-31T05:45:07.355Z,14.23
2018-07-31T05:47:35.891Z,14.90
2018-07-31T05:50:05.619Z,13.83
2018-07-31T05:52:34.508Z,15.80
2018-07-31T05:55:03.272Z,14.73
2018-07-31T05:57:32.466Z,15.00
2018-07-31T06:00:01.832Z,13.70
2018-07-31T06:02:30.380Z,13.40
2018-07-31T06:04:59.237Z,14.67
2018-07-31T06:07:28.859Z,14.67
2018-07-31T06:09:57.822Z,14.73
2018-07-31T06:12:27.595Z,13.47
2018-07-31T06:14:57.169Z,13.83
2018-07-31T06:17:25.773Z,13.33
2018-07-31T06:19:54.270Z,14.73
2018-07-31T06:22:22.915Z,13.90
2018-07-31T06:24:52.978Z,13.03
2018-07-31T06:27:22.905Z,11.50
2018-07-31T06:29:51.495Z,12.00
2018-07-31T06:32:20.574Z,10.73
2018-07-31T06:34:49.527Z,10.47
2018-07-31T06:37:18.449Z,9.83
2018-07-31T06:39:47.185Z,9.43
2018-07-31T06:42:15.838Z,9.67
2018-07-31T06:44:44.925Z,9.10
2018-07-31T06:47:14.033Z,9.63
2018-07-31T06:49:43.519Z,9.13
2018-07-31T06:52:13.651Z,8.50
2018-07-31T06:54:43.184Z,9.00
2018-07-31T06:57:12.250Z,9.10
2018-07-31T06:59:42.129Z,8.63
2018-07-31T07:02:11.166Z,8.88
2018-07-31T07:04:40.451Z,8.93
2018-07-31T07:07:10.235Z,8.33
2018-07-31T07:09:40.121Z,7.75
2018-07-31T07:12:10.063Z,8.05
2018-07-31T07:14:39.214Z,7.80
2018-07-31T07:17:08.272Z,8.15
2018-07-31T07:19:38.438Z,7.28
2018-07-31T07:22:07.667Z,8.30
2018-07-31T07:24:36.790Z,7.62
2018-07-31T07:27:06.785Z,7.37
2018-07-31T07:29:36.235Z,7.78
2018-07-31T07:32:05.853Z,8.20
2018-07-31T07:34:34.955Z,7.10
2018-07-31T07:37:04.679Z,8.45
2018-07-31T07:39:33.757Z,8.05
2018-07-31T07:42:02.879Z,8.43
2018-07-31T07:44:32.370Z,7.30
2018-07-31T07:47:03.232Z,7.43
2018-07-31T07:49:32.224Z,6.13
2018-07-31T07:52:00.887Z,6.17
2018-07-31T07:54:30.934Z,6.17
2018-07-31T07:57:01.244Z,6.30
2018-07-31T07:59:30.310Z,5.17
2018-07-31T08:02:00.089Z,5.47
2018-07-31T08:04:29.521Z,6.15
2018-07-31T08:06:59.004Z,5.47
2018-07-31T08:09:28.056Z,4.67
2018-07-31T08:11:57.179Z,5.53
2018-07-31T08:14:26.262Z,5.58
2018-07-31T08:16:55.731Z,5.45
2018-07-31T08:19:25.316Z,5.08
2018-07-31T08:21:54.805Z,4.47
2018-07-31T08:24:24.847Z,5.00
2018-07-31T08:26:54.133Z,5.30
2018-07-31T08:29:23.503Z,5.00
2018-07-31T08:31:53.819Z,4.60
2018-07-31T08:34:23.989Z,4.42
2018-07-31T08:36:55.407Z,3.87
2018-07-31T08:39:25.330Z,4.50
2018-07-31T08:41:54.400Z,4.67
2018-07-31T08:44:24.742Z,4.67
2018-07-31T08:46:53.800Z,4.55
2018-07-31T08:49:22.870Z,4.72
2018-07-31T08:51:51.888Z,4.22
2018-07-31T08:54:20.941Z,4.00
2018-07-31T08:56:50.245Z,4.08
2018-07-31T08:59:19.285Z,4.75
2018-07-31T09:01:48.323Z,3.60
2018-07-31T09:04:18.907Z,4.30
2018-07-31T09:06:47.654Z,3.80
2018-07-31T09:09:17.692Z,4.00
2018-07-31T09:11:47.322Z,3.75
2018-07-31T09:14:16.633Z,4.00
2018-07-31T09:16:45.928Z,3.70
2018-07-31T09:19:15.284Z,3.67
2018-07-31T09:21:44.247Z,3.85
2018-07-31T09:24:13.670Z,3.17
2018-07-31T09:26:42.655Z,3.77
2018-07-31T09:29:11.981Z,4.05
2018-07-31T09:31:41.529Z,3.58
2018-07-31T09:34:10.555Z,3.30
2018-07-31T09:36:40.109Z,3.12
2018-07-31T09:39:11.661Z,3.30
2018-07-31T09:41:40.955Z,3.60
2018-07-31T09:44:10.586Z,3.95
2018-07-31T09:46:39.556Z,3.37
2018-07-31T09:49:08.508Z,3.55
2018-07-31T09:51:37.534Z,3.20
2018-07-31T09:54:06.603Z,3.52
2018-07-31T09:56:35.960Z,3.50
2018-07-31T09:59:05.903Z,3.17
2018-07-31T10:01:35.261Z,3.55
2018-07-31T10:04:04.297Z,3.20
2018-07-31T10:06:34.754Z,3.08
2018-07-31T10:09:05.847Z,2.75
2018-07-31T10:11:34.875Z,3.10
2018-07-31T10:14:04.695Z,3.17
2018-07-31T10:16:33.695Z,3.17
2018-07-31T10:19:03.380Z,3.40
2018-07-31T10:21:32.719Z,2.72
2018-07-31T10:24:01.697Z,3.10
2018-07-31T10:26:31.750Z,2.30
2018-07-31T10:29:00.712Z,3.12
2018-07-31T10:31:29.704Z,2.70
2018-07-31T10:33:58.866Z,2.40
2018-07-31T10:36:27.867Z,2.37
2018-07-31T10:38:56.874Z,2.45
2018-07-31T10:41:25.840Z,2.20
2018-07-31T10:43:54.840Z,2.60
2018-07-31T10:46:23.969Z,2.40
2018-07-31T10:48:53.020Z,2.83
2018-07-31T10:51:21.971Z,2.60
2018-07-31T10:53:52.482Z,2.90
2018-07-31T10:56:21.437Z,2.95
2018-07-31T10:58:50.435Z,2.60
2018-07-31T11:01:20.452Z,3.02
2018-07-31T11:03:49.501Z,3.08
2018-07-31T11:06:18.180Z,2.80
2018-07-31T11:08:47.366Z,2.45
2018-07-31T11:11:16.252Z,2.40
2018-07-31T11:13:45.198Z,3.10
2018-07-31T11:16:13.730Z,2.53
2018-07-31T11:18:44.081Z,2.30
2018-07-31T11:21:14.102Z,2.70
2018-07-31T11:23:44.421Z,2.52
2018-07-31T11:26:14.049Z,2.95
2018-07-31T11:28:44.420Z,3.08
2018-07-31T11:31:13.674Z,2.72
2018-07-31T11:33:51.251Z,2.65
2018-07-31T11:36:24.627Z,2.98
2018-07-31T11:38:54.224Z,2.85
2018-07-31T11:41:24.964Z,3.47
2018-07-31T11:43:54.136Z,2.90
2018-07-31T11:46:23.290Z,3.10
2018-07-31T11:48:52.626Z,3.30
2018-07-31T11:51:22.352Z,2.80
2018-07-31T11:53:51.825Z,2.60
2018-07-31T11:56:20.983Z,3.65
2018-07-31T11:58:50.457Z,3.62
2018-07-31T12:01:19.726Z,3.27
2018-07-31T12:03:48.888Z,3.42
2018-07-31T12:06:18.709Z,3.02
2018-07-31T12:08:48.708Z,3.22
2018-07-31T12:11:18.612Z,2.60
2018-07-31T12:13:48.030Z,3.20
2018-07-31T12:16:17.404Z,2.62
2018-07-31T12:18:46.002Z,2.67
2018-07-31T12:21:15.217Z,2.97
2018-07-31T12:23:44.262Z,2.45
2018-07-31T12:26:12.770Z,2.83
2018-07-31T12:28:41.802Z,2.58
2018-07-31T12:31:11.719Z,2.95
2018-07-31T12:33:41.134Z,3.42
2018-07-31T12:36:10.912Z,2.70
2018-07-31T12:38:40.409Z,2.90
2018-07-31T12:41:09.475Z,2.62
2018-07-31T12:43:38.563Z,3.10
2018-07-31T12:46:08.475Z,2.42
2018-07-31T12:48:38.682Z,2.42
2018-07-31T12:51:07.802Z,2.90
2018-07-31T12:53:37.206Z,2.67
2018-07-31T12:56:06.903Z,2.67
2018-07-31T12:58:35.421Z,2.77
2018-07-31T13:01:03.949Z,3.00
2018-07-31T13:03:32.442Z,3.15
2018-07-31T13:06:00.968Z,2.70
2018-07-31T13:08:31.498Z,2.40
2018-07-31T13:11:00.056Z,3.00
2018-07-31T13:13:29.083Z,2.60
2018-07-31T13:15:59.711Z,2.60
2018-07-31T13:18:28.198Z,2.72
2018-07-31T13:20:57.554Z,2.45
2018-07-31T13:23:26.650Z,2.08
2018-07-31T13:25:55.846Z,2.83
2018-07-31T13:28:24.983Z,2.70
2018-07-31T13:30:53.985Z,2.17
2018-07-31T13:33:22.583Z,2.30
2018-07-31T13:35:51.058Z,2.00
2018-07-31T13:38:20.324Z,2.20
2018-07-31T13:40:48.972Z,2.80
2018-07-31T13:43:17.800Z,2.53
2018-07-31T13:45:46.696Z,2.40
2018-07-31T13:48:15.833Z,2.80
2018-07-31T13:50:44.371Z,2.33
2018-07-31T13:53:14.396Z,2.40
2018-07-31T13:55:42.910Z,2.60
2018-07-31T13:58:11.387Z,2.30
2018-07-31T14:00:39.888Z,2.50
2018-07-31T14:03:08.652Z,2.30
2018-07-31T14:05:37.267Z,2.10
2018-07-31T14:08:07.215Z,2.20
2018-07-31T14:10:36.348Z,2.17
2018-07-31T14:13:05.215Z,2.10
2018-07-31T14:15:34.475Z,2.43
2018-07-31T14:18:03.339Z,2.40
2018-07-31T14:20:32.492Z,2.30
2018-07-31T14:23:01.780Z,2.43
2018-07-31T14:25:30.296Z,2.30
2018-07-31T14:27:58.807Z,2.30
2018-07-31T14:30:27.563Z,2.07
2018-07-31T14:32:56.239Z,2.13
2018-07-31T14:35:24.813Z,2.03
2018-07-31T14:37:53.785Z,2.10
2018-07-31T14:40:23.767Z,2.03
2018-07-31T14:42:52.277Z,2.00
2018-07-31T14:45:20.931Z,2.00
2018-07-31T14:47:49.430Z,1.97
2018-07-31T14:50:17.628Z,2.00
2018-07-31T14:52:46.218Z,1.90
2018-07-31T14:55:14.704Z,1.83
2018-07-31T14:57:43.363Z,2.03
2018-07-31T15:00:11.899Z,2.07
2018-07-31T15:02:41.883Z,1.90
2018-07-31T15:05:13.605Z,2.07
2018-07-31T15:07:42.189Z,2.03
2018-07-31T15:10:10.833Z,1.97
2018-07-31T15:12:40.244Z,2.10
2018-07-31T15:15:09.439Z,2.20
2018-07-31T15:17:38.149Z,2.07
2018-07-31T15:20:09.430Z,1.90
2018-07-31T15:22:38.090Z,1.93
2018-07-31T15:25:07.037Z,2.13
2018-07-31T15:27:35.802Z,2.10
2018-07-31T15:30:05.754Z,2.17
2018-07-31T15:32:34.871Z,2.07
2018-07-31T15:35:03.526Z,2.07
2018-07-31T15:37:32.481Z,2.07
2018-07-31T15:40:01.338Z,2.33
2018-07-31T15:42:30.611Z,2.33
2018-07-31T15:44:59.339Z,2.43
2018-07-31T15:47:27.999Z,2.40
2018-07-31T15:49:57.016Z,2.67
2018-07-31T15:52:26.219Z,2.47
2018-07-31T15:54:55.602Z,2.03
2018-07-31T15:57:24.128Z,2.47
2018-07-31T15:59:52.651Z,2.20
2018-07-31T16:02:21.241Z,2.07
2018-07-31T16:04:50.809Z,2.20
2018-07-31T16:07:20.420Z,2.40
2018-07-31T16:09:48.995Z,2.20
2018-07-31T16:12:17.520Z,2.20
2018-07-31T16:14:46.859Z,2.03
2018-07-31T16:17:15.687Z,2.00
2018-07-31T16:19:44.805Z,2.23
2018-07-31T16:22:13.466Z,2.10
2018-07-31T16:24:42.103Z,1.97
2018-07-31T16:27:12.129Z,2.07
2018-07-31T16:29:40.689Z,2.27
2018-07-31T16:32:09.963Z,2.70
2018-07-31T16:34:38.552Z,2.50
2018-07-31T16:37:07.484Z,2.30
2018-07-31T16:39:36.643Z,2.10
2018-07-31T16:42:05.266Z,2.77
2018-07-31T16:44:33.782Z,2.33
2018-07-31T16:47:03.774Z,3.00
2018-07-31T16:49:32.307Z,2.97
2018-07-31T16:52:00.840Z,3.07
2018-07-31T16:54:29.327Z,3.10
2018-07-31T16:56:57.867Z,3.30
2018-07-31T16:59:27.641Z,3.07
2018-07-31T17:01:57.182Z,3.67
2018-07-31T17:04:25.806Z,3.73
2018-07-31T17:06:54.871Z,4.10
2018-07-31T17:09:23.404Z,3.97
2018-07-31T17:11:52.282Z,3.70
2018-07-31T17:14:21.934Z,3.87
2018-07-31T17:16:50.541Z,3.60
2018-07-31T17:19:19.790Z,3.90
2018-07-31T17:21:48.284Z,4.00
2018-07-31T17:24:17.046Z,4.10
2018-07-31T17:26:45.599Z,4.37
2018-07-31T17:29:14.085Z,5.23
2018-07-31T17:31:42.602Z,4.30
2018-07-31T17:34:11.067Z,3.80
2018-07-31T17:36:39.820Z,3.40
2018-07-31T17:39:10.028Z,3.97
2018-07-31T17:41:39.675Z,4.13
2018-07-31T17:44:08.288Z,3.80
2018-07-31T17:46:36.841Z,3.93
2018-07-31T17:49:05.982Z,3.80
2018-07-31T17:51:34.495Z,4.17
2018-07-31T17:54:03.034Z,3.70
2018-07-31T17:56:32.624Z,4.33
2018-07-31T17:59:01.118Z,3.40
2018-07-31T18:01:30.043Z,3.43
2018-07-31T18:03:58.735Z,3.20
2018-07-31T18:06:27.290Z,2.80
2018-07-31T18:08:56.980Z,3.30
2018-07-31T18:11:25.537Z,2.73
2018-07-31T18:13:54.036Z,2.90
2018-07-31T18:16:22.743Z,2.80
2018-07-31T18:18:51.486Z,2.90
2018-07-31T18:21:19.981Z,2.70
2018-07-31T18:23:48.944Z,2.63
2018-07-31T18:26:19.584Z,2.97
2018-07-31T18:28:48.126Z,3.03
2018-07-31T18:31:18.305Z,2.67
2018-07-31T18:33:46.848Z,3.43
2018-07-31T18:36:15.336Z,2.83
2018-07-31T18:38:44.200Z,2.60
2018-07-31T18:41:13.116Z,2.63
2018-07-31T18:43:42.666Z,2.80
2018-07-31T18:46:11.174Z,2.30
2018-07-31T18:48:39.866Z,2.30
2018-07-31T18:51:09.180Z,2.87
2018-07-31T18:53:37.736Z,2.60
2018-07-31T18:56:06.867Z,2.47
2018-07-31T18:58:36.498Z,2.60
2018-07-31T19:01:05.191Z,2.30
2018-07-31T19:03:34.192Z,2.40
2018-07-31T19:06:02.755Z,2.50
2018-07-31T19:08:32.203Z,2.67
2018-07-31T19:11:00.379Z,2.47
2018-07-31T19:13:30.523Z,2.27
2018-07-31T19:15:59.028Z,2.50
2018-07-31T19:18:27.511Z,3.00
2018-07-31T19:20:56.035Z,2.80
2018-07-31T19:23:24.862Z,2.63
2018-07-31T19:25:55.188Z,3.23
2018-07-31T19:28:24.219Z,2.63
2018-07-31T19:30:53.691Z,2.53
2018-07-31T19:33:22.203Z,3.03
2018-07-31T19:35:50.884Z,2.77
2018-07-31T19:38:19.347Z,2.77
2018-07-31T19:40:47.840Z,2.83
2018-07-31T19:43:16.671Z,2.40
2018-07-31T19:45:45.888Z,2.40
2018-07-31T19:48:14.360Z,2.40
2018-07-31T19:50:42.866Z,2.87
2018-07-31T19:53:11.395Z,2.60
2018-07-31T19:55:40.353Z,2.77
2018-07-31T19:58:08.857Z,2.10
2018-07-31T20:00:38.034Z,2.33
2018-07-31T20:03:06.951Z,2.33
2018-07-31T20:05:35.453Z,2.40
2018-07-31T20:08:04.630Z,2.30
2018-07-31T20:10:33.192Z,2.57
2018-07-31T20:13:03.044Z,2.73
2018-07-31T20:15:31.614Z,2.30
2018-07-31T20:18:00.218Z,2.50
2018-07-31T20:20:29.135Z,2.30
2018-07-31T20:22:58.499Z,2.77
2018-07-31T20:25:26.995Z,2.63
2018-07-31T20:27:55.476Z,2.23
2018-07-31T20:30:24.053Z,2.37
2018-07-31T20:32:52.611Z,2.30
2018-07-31T20:35:21.090Z,2.60
2018-07-31T20:37:50.364Z,2.27
2018-07-31T20:40:19.078Z,2.07
2018-07-31T20:42:49.011Z,2.17
2018-07-31T20:45:17.715Z,2.47
2018-07-31T20:47:46.318Z,2.20
2018-07-31T20:50:15.394Z,2.40
2018-07-31T20:52:44.096Z,2.23
2018-07-31T20:55:12.691Z,2.70
2018-07-31T20:57:41.295Z,2.27
2018-07-31T21:00:09.966Z,2.53
2018-07-31T21:02:39.245Z,2.40
2018-07-31T21:05:08.056Z,2.50
2018-07-31T21:07:37.376Z,2.43
2018-07-31T21:10:05.971Z,2.87
2018-07-31T21:12:36.777Z,2.43
2018-07-31T21:15:07.830Z,2.60
2018-07-31T21:17:38.231Z,2.30
2018-07-31T21:20:07.344Z,2.33
2018-07-31T21:22:35.803Z,2.60
2018-07-31T21:25:05.266Z,2.20
2018-07-31T21:27:34.066Z,2.50
2018-07-31T21:30:02.734Z,2.10
2018-07-31T21:32:31.786Z,2.10
2018-07-31T21:35:00.738Z,2.10
2018-07-31T21:37:29.259Z,2.40
2018-07-31T21:39:57.910Z,2.40
2018-07-31T21:42:26.719Z,2.47
2018-07-31T21:44:55.837Z,2.47
2018-07-31T21:47:24.420Z,2.40
2018-07-31T21:49:52.927Z,2.07
2018-07-31T21:52:21.621Z,2.00
2018-07-31T21:54:50.751Z,1.90
2018-07-31T21:57:19.507Z,2.20
2018-07-31T21:59:48.062Z,2.13
2018-07-31T22:02:17.812Z,2.67
2018-07-31T22:04:48.801Z,2.20
2018-07-31T22:07:18.244Z,2.03
2018-07-31T22:09:48.545Z,2.33
2018-07-31T22:12:17.023Z,2.03
2018-07-31T22:14:45.534Z,2.23
2018-07-31T22:17:14.039Z,2.20
2018-07-31T22:19:42.927Z,2.33
2018-07-31T22:22:11.443Z,2.17
2018-07-31T22:24:40.226Z,2.03
2018-07-31T22:27:08.852Z,2.00
2018-07-31T22:29:37.658Z,1.87
2018-07-31T22:32:06.374Z,2.30
2018-07-31T22:34:36.163Z,1.97
2018-07-31T22:37:04.679Z,2.20
2018-07-31T22:39:33.247Z,2.30
2018-07-31T22:42:03.595Z,2.30
2018-07-31T22:44:32.103Z,2.20
2018-07-31T22:47:00.615Z,2.57
2018-07-31T22:49:29.139Z,2.40
2018-07-31T22:51:57.637Z,2.07
2018-07-31T22:54:26.120Z,2.20
2018-07-31T22:56:55.206Z,1.80
2018-07-31T22:59:24.699Z,1.90
2018-07-31T23:01:54.811Z,2.03
2018-07-31T23:04:23.307Z,2.13
2018-07-31T23:06:51.801Z,2.33
2018-07-31T23:09:20.280Z,1.50
2018-07-31T23:11:49.076Z,2.57
2018-07-31T23:14:17.575Z,2.10
2018-07-31T23:16:46.388Z,2.30
2018-07-31T23:19:14.869Z,2.00
2018-07-31T23:21:43.643Z,1.87
2018-07-31T23:24:12.142Z,1.87
2018-07-31T23:26:40.937Z,2.00
2018-07-31T23:29:09.400Z,2.00
2018-07-31T23:31:37.911Z,2.70
2018-07-31T23:34:06.731Z,1.80
2018-07-31T23:36:35.308Z,2.20
2018-07-31T23:39:04.559Z,1.90
2018-07-31T23:41:33.071Z,1.93
2018-07-31T23:44:01.899Z,2.10
2018-07-31T23:46:30.424Z,2.50
2018-07-31T23:48:59.003Z,1.90
2018-07-31T23:51:27.599Z,2.07
2018-07-31T23:53:56.413Z,2.03
2018-07-31T23:56:24.916Z,2.07
2018-07-31T23:58:53.387Z,1.90
